EA1JBE-2
43.21.56N 005.50.46W
IN73BI aprs.fi
zuletzt gehoert:
2021-04-19T18:55:06Z
zuerst gehoert:
2020-05-03T11:48:53Z

APRS Oviedo [IN73BI], 0 Stunde(n), EA1JBE-2 [20:59:17, 0s].
33D00 43.21.63N 005.51.13WIN73BI 1.273km 295°WNW18:58:43Z33-D-00 Protección Civil REMER / Delegación del Gobierno en Asturias
EA1L 43.20.37N 005.51.13WIN73BI 2.112km 213°SSW18:50:06Zea1l@ure.es V=11.7V,T=??.?C
Wind 000°/000kn, Böen bis 000kn, Temp 0.00c, Regen 0.0mm, letzte 24h 0.0mm, seit 0h 0.0mm, Baro 0000.0h, Hum: 0%(2EA1L-13)
EA1YR 43.22.09N 005.51.86WIN73BI 2.572km 303°WNW18:32:56ZMMDVM DVS 434.3500/434.3500 CC1
LEHU 43.22.63N 005.49.57WIN73CJ 2.575km 21°NNE18:30:03ZHelipuerto del HUCA: LEAS 191800Z 31007KT 280V340 9999 FEW040 13/08 Q1017 NOSIG=
ED1ZAU 43.23.04N 005.52.75WIN73BJ 4.600km 313°NW18:37:22ZRD625 438.5000/430.9000 CC1
EA1ABW 43.24.77N 005.47.77WIN73CJ 7.213km 28°NNE18:31:35ZMMDVM MMDVM HS Hat 439.8250/439.8250 CC1
LEMR 43.25.83N 005.49.60WIN73CK 8.375km N18:30:04ZAerodromo de la Morgal: LEAS 191800Z 31007KT 280V340 9999 FEW040 13/08 Q1017 NOSIG=
LEGM 43.26.15N 005.49.84WIN73CK 8.958km N18:30:03ZHelipuerto de La Morgal: LEAS 191800Z 31007KT 280V340 9999 FEW040 13/08 Q1017 NOSIG=
EA1IMW 43.14.36N 005.46.93WIN73CF 13.691km 161°SSE18:31:24ZGRUPO RADIO GALENA (GRG) 433.4500/433.4500 CC1
EA1JBL 43.12.28N 005.47.42WIN73CE 17.196km 167°SSE18:31:47ZMMDVM DVMega 435.3000/435.3000 CC1
ED1ZAY 43.29.47N 005.56.54WIN73AL 17.292km 331°NNW18:37:22ZRD625 438.3000/430.7000 CC1
EB1DGC 43.12.60N 005.45.59WIN73CF 17.373km 159°SSE18:31:30ZMMDVM MMDVM HS Hat 433.4500/433.4500 CC1
EA1HWA 43.12.00N 005.47.40WIN73CE 17.729km 167°SSE18:34:04ZMMDVM MMDVM HS Hat 433.4500/433.4500 CC1
ED1ZAS 43.27.52N 005.40.17WIN73DL 17.789km 50°NE18:37:30ZRD985 438.2250/430.6250 CC1
ED1ZAE 43.27.99N 005.40.54WIN73DL 17.984km 47°NE18:55:08Z2m Voice 145.5875 -0.600 Mhz(3ED1ZAE-C)
WIDE3-3 ESAS3-3 IN73DL WWW.EA1URG.ORG(2ED1ZAE-3)
EA1FLQ 43.22.00N 005.36.35WIN73EI 18.788km 86°E18:35:21ZMMDVM DVMega 439.9750/439.9750 CC5
EA1AQK 43.16.49N 005.35.99WIN73EG 21.231km 115°ESE18:31:48ZMMDVM MMDVM HS Hat 439.8500/439.8500 CC1
EA1AHA 43.32.72N 005.54.38WIN73BN 21.822km 345°NNW18:51:27ZWind 000°/003kn, Böen bis 005kn, Temp 15.56c, Regen 0.0mm, letzte 24h 0.0mm, seit 0h 0.0mm, Baro 1018.6h, Hum: 61%(3EA1AHA-13)
EA1RCG 43.09.45N 005.49.78WIN73CD 22.015km 178°S18:36:46ZGRUPO RADIO GALENA (GRG) 433.4500/433.4500 CC1
EB1TK 43.32.22N 005.42.32WIN73DM 22.848km 28°NNE18:55:15ZWind 055°/000kn, Böen bis 002kn, Temp 13.89c, Regen 0.0mm, letzte 24h 0.0mm, seit 0h 0.0mm, Baro 1020.3h, Hum: 81%(3EB1TK-13)
EA1FFA 43.31.53N 005.40.64WIN73DM 22.925km 34°NE18:33:44ZMMDVM MMDVM HS Hat 438.8000/438.8000 CC1
EA1DZR 43.31.47N 005.40.00WIN73DM 23.311km 36°NE18:36:34ZMMDVM DVMega 431.1000/431.1000 CC1
LEEL 43.32.98N 005.41.71WIN73DN 24.454km 28°NNE18:30:03ZHelipuerto de El Musel: LEAS 191800Z 31007KT 280V340 9999 FEW040 13/08 Q1017 NOSIG=
EB1GEM 43.30.00N 005.36.07WIN73EM 24.976km 50°NE18:51:49ZWX3in1Plus2.0 U=13.3V,T=??.?C/??.?F(3EB1GEM-3)
EA1DHE 43.33.98N 005.58.57WIN73AN 25.966km 335°NNW18:33:00ZMMDVM DVS 434.3500/434.3500 CC1
EA1HJA 43.28.10N 005.30.45WIN73FL 29.483km 65°ENE18:50:14Z IN73FL WX3IN1+ 2.0 - V=13.9V,TX TEMP=45.1C
EA1HJA@URE.ES(2EA1HJA-2)
ED1ZAD 43.07.90N 005.38.52WIN73ED 29.500km 147°SSE18:44:52ZED1ZAD-3 APRS Digi/Igate(3ED1ZAD-3)
EA1FHR 43.28.72N 005.26.41WIN73GL 34.902km 67°ENE18:34:34ZMMDVM MMDVM HS Hat 439.1500/439.1500 CC1
EA1JAY 43.29.32N 005.26.60WIN73GL 35.138km 65°ENE18:35:23Z434.525MHz Nodo TETRA DMO(3EA1JAY-4)
EA1JAY(2EA1JAY-2)
EA1JAY 438.8000/438.8000 CC1(2EA1JAY)
EC1KV 43.34.01N 006.16.01WIN63UN 41.826km 304°NW18:40:25ZALBUERNE(3EC1KV-1)
LETN 43.20.05N 006.22.69WIN63TI 43.757km 267°W18:30:03ZAerodromo de La Curiscada (Tineo): LEAS 191800Z 31007KT 280V340 9999 FEW040 13/08 Q1017 NOSIG=
EC1AE 43.08.94N 006.18.77WIN63UD 44.804km 239°WSW18:47:03Z IN63UD VOLT.=13.8 V - TEMP.=??.? C(3EC1AE-2)
EA1JBU 43.30.80N 005.16.20WIN73IM 49.077km 69°ENE18:45:03ZEA1JBU(3EA1JBU-2)
EA1JBE 43.30.90N 005.16.15WIN73IM 49.218km 69°ENE18:54:48ZTransmission ended(3EA1JBE-9)
(2EA1JBE-2)
MAIN QTH http://qrz.com/db/ea1jbe(2EA1JBE-1)
MAIN QTH http://qrz.com/db/ea1jbe(2EA1JBE-13)

aprs.pl 5.0.011w DL3EL © 2006-2021 [270648]